Time;durP1;ratioP1;P1;durP2;ratioP2;P2;SDS_P1;SDS_P2;PMS_P1;PMS_P2;Temp;Humidity;BMP_temperature;BMP_pressure;BME280_temperature;BME280_humidity;BME280_pressure;Samples;Min_cycle;Max_cycle;Signal;HPM_P1;HPM_P2
2021/04/18 00:01:16;;;;;;;19.85;13.20;;;;;;;5.64;69.28;96440.75;5048979;28;20052;-66
2021/04/18 00:03:42;;;;;;;18.98;12.68;;;;;;;5.60;69.42;96447.81;5052663;28;20048;-65
2021/04/18 00:06:08;;;;;;;17.27;12.38;;;;;;;5.55;69.28;96434.34;5047911;28;20546;-66
2021/04/18 00:08:34;;;;;;;19.13;13.00;;;;;;;5.58;69.43;96436.47;5052305;28;20500;-66
2021/04/18 00:11:00;;;;;;;18.65;12.73;;;;;;;5.53;69.69;96441.91;5048127;28;20041;-65
2021/04/18 00:13:26;;;;;;;20.65;13.73;;;;;;;5.55;69.66;96435.16;5050116;28;20049;-65
2021/04/18 00:15:52;;;;;;;20.75;13.68;;;;;;;5.57;69.83;96430.25;5049046;28;20048;-65
2021/04/18 00:18:18;;;;;;;19.30;13.70;;;;;;;5.55;69.91;96428.97;5050792;28;20102;-65
2021/04/18 00:20:44;;;;;;;20.13;14.07;;;;;;;5.48;69.83;96430.09;5051534;28;20044;-65
2021/04/18 00:23:10;;;;;;;21.83;13.85;;;;;;;5.48;70.01;96424.69;5050985;28;20053;-66
2021/04/18 00:25:36;;;;;;;19.63;13.48;;;;;;;5.48;69.71;96430.09;5051517;28;20045;-65
2021/04/18 00:28:03;;;;;;;19.13;13.45;;;;;;;5.49;69.87;96425.50;5050893;28;20056;-66
2021/04/18 00:30:30;;;;;;;22.88;14.20;;;;;;;5.46;69.91;96421.44;5050641;28;20045;-65
2021/04/18 00:32:56;;;;;;;18.17;12.52;;;;;;;5.45;69.60;96430.66;5050425;28;20110;-65
2021/04/18 00:35:22;;;;;;;20.05;14.20;;;;;;;5.45;69.81;96422.53;5051586;28;20052;-66
2021/04/18 00:37:49;;;;;;;20.38;14.40;;;;;;;5.45;69.72;96425.25;5048836;28;20049;-66
2021/04/18 00:40:18;;;;;;;20.45;13.63;;;;;;;5.47;69.62;96422.25;5051029;28;20068;-65
2021/04/18 00:42:45;;;;;;;18.08;13.77;;;;;;;5.44;70.08;96429.03;5050684;28;20045;-65
2021/04/18 00:45:13;;;;;;;21.48;14.55;;;;;;;5.43;70.14;96424.72;5050792;28;20091;-66
2021/04/18 00:47:42;;;;;;;22.30;14.45;;;;;;;5.43;69.88;96424.72;5051079;28;20160;-66
2021/04/18 00:50:10;;;;;;;20.58;13.85;;;;;;;5.38;70.25;96430.19;5050298;28;20060;-66
2021/04/18 00:52:36;;;;;;;22.25;15.40;;;;;;;5.36;70.43;96431.53;5047188;28;20079;-65
2021/04/18 00:55:05;;;;;;;20.67;14.30;;;;;;;5.37;70.40;96428.53;5043143;28;20095;-66
2021/04/18 00:57:31;;;;;;;22.45;15.27;;;;;;;5.32;70.69;96425.88;5051287;28;20059;-65
2021/04/18 00:59:59;;;;;;;20.75;15.00;;;;;;;5.31;71.15;96418.88;5050229;28;20072;-65
2021/04/18 01:02:25;;;;;;;22.98;15.20;;;;;;;5.31;71.11;96424.28;5050886;28;20049;-65
2021/04/18 01:04:51;;;;;;;24.08;15.20;;;;;;;5.29;71.54;96421.06;5049827;28;20566;-66
2021/04/18 01:07:17;;;;;;;23.75;16.13;;;;;;;5.28;71.62;96419.47;5050269;28;20049;-65
2021/04/18 01:09:43;;;;;;;21.15;14.57;;;;;;;5.27;71.61;96417.81;5048517;28;20075;-65
2021/04/18 01:12:10;;;;;;;21.65;15.63;;;;;;;5.27;71.74;96417.81;5049901;28;20041;-66
2021/04/18 01:14:36;;;;;;;23.38;15.60;;;;;;;5.23;71.87;96416.78;5050606;28;20053;-65
2021/04/18 01:17:02;;;;;;;21.98;14.85;;;;;;;5.22;72.03;96415.19;5048743;28;20052;-66
2021/04/18 01:19:28;;;;;;;23.38;14.88;;;;;;;5.20;72.15;96412.75;5051444;28;20052;-65
2021/04/18 01:21:55;;;;;;;23.85;16.05;;;;;;;5.19;72.34;96402.25;5049356;28;20045;-65
2021/04/18 01:24:21;;;;;;;24.20;16.48;;;;;;;5.17;72.76;96412.53;5048517;28;20123;-66
2021/04/18 01:26:47;;;;;;;24.67;16.65;;;;;;;5.16;72.81;96410.91;5049915;28;20053;-65
2021/04/18 01:29:13;;;;;;;25.48;17.05;;;;;;;5.17;73.19;96413.34;5047393;28;20044;-65
2021/04/18 01:31:39;;;;;;;24.60;17.27;;;;;;;5.17;73.12;96401.72;5050473;28;20053;-65
2021/04/18 01:34:05;;;;;;;26.13;17.38;;;;;;;5.16;73.51;96394.69;5047774;28;20041;-66
2021/04/18 01:36:31;;;;;;;24.65;16.92;;;;;;;5.14;73.68;96403.09;5051235;28;20041;-65
2021/04/18 01:38:58;;;;;;;27.15;17.67;;;;;;;5.10;73.77;96393.94;5045975;28;20044;-65
2021/04/18 01:41:24;;;;;;;25.10;16.88;;;;;;;5.07;73.99;96407.22;5049090;28;20053;-65
2021/04/18 01:43:50;;;;;;;26.83;17.73;;;;;;;5.05;74.11;96414.75;5048802;28;20426;-65
2021/04/18 01:46:16;;;;;;;33.35;17.27;;;;;;;5.04;74.44;96410.47;5049350;28;20048;-66
2021/04/18 01:48:42;;;;;;;27.55;18.38;;;;;;;5.03;74.66;96406.16;5049981;28;20080;-65
2021/04/18 01:51:10;;;;;;;26.50;17.20;;;;;;;5.03;74.82;96406.16;5047141;28;20514;-66
2021/04/18 01:53:36;;;;;;;28.40;18.27;;;;;;;5.00;74.88;96412.09;5046899;28;20057;-65
2021/04/18 01:56:04;;;;;;;28.88;18.92;;;;;;;4.98;75.04;96399.69;5048486;28;20044;-66
2021/04/18 01:58:30;;;;;;;30.30;18.90;;;;;;;4.97;75.29;96408.88;5050746;28;20127;-65
2021/04/18 02:00:56;;;;;;;26.38;18.25;;;;;;;4.94;75.49;96404.03;5048184;28;20041;-65
2021/04/18 02:03:22;;;;;;;29.33;19.02;;;;;;;4.92;75.61;96402.72;5050155;28;20542;-66
2021/04/18 02:05:48;;;;;;;29.05;18.67;;;;;;;4.91;75.74;96399.22;5048585;28;20041;-65
2021/04/18 02:08:14;;;;;;;29.02;18.90;;;;;;;4.89;75.61;96401.38;5050199;28;20045;-66
2021/04/18 02:10:40;;;;;;;29.25;18.52;;;;;;;4.89;75.56;96406.75;5047277;28;20056;-66
2021/04/18 02:13:07;;;;;;;27.70;18.38;;;;;;;4.87;75.60;96403.56;5049897;28;20041;-66
2021/04/18 02:15:33;;;;;;;27.55;17.95;;;;;;;4.85;75.54;96408.41;5049018;28;20091;-65
2021/04/18 02:17:59;;;;;;;26.70;18.05;;;;;;;4.83;75.52;96409.78;5048298;28;20459;-65
2021/04/18 02:20:25;;;;;;;27.92;18.05;;;;;;;4.83;75.65;96404.38;5048712;28;20061;-66
2021/04/18 02:22:51;;;;;;;26.42;18.58;;;;;;;4.80;75.51;96403.03;5046213;28;20041;-66
2021/04/18 02:25:17;;;;;;;29.48;19.15;;;;;;;4.76;75.78;96407.41;5049070;28;20045;-66
2021/04/18 02:27:43;;;;;;;30.42;19.63;;;;;;;4.77;75.83;96402.81;5046941;28;20068;-66
2021/04/18 02:30:11;;;;;;;30.13;18.45;;;;;;;4.76;76.08;96399.31;5050153;28;20489;-66
2021/04/18 02:32:37;;;;;;;27.15;17.77;;;;;;;4.74;76.09;96404.16;5048060;28;20129;-66
2021/04/18 02:35:05;;;;;;;28.75;18.52;;;;;;;4.74;76.15;96404.16;5048956;28;20474;-66
2021/04/18 02:37:31;;;;;;;29.75;19.17;;;;;;;4.73;76.25;96399.84;5049462;28;20519;-66
2021/04/18 02:43:19;;;;;;;29.45;19.08;;;;;;;4.67;76.40;96401.78;5046650;28;20478;-65
2021/04/18 02:45:45;;;;;;;30.58;20.00;;;;;;;4.65;76.68;96405.88;5045403;28;20068;-66
2021/04/18 02:48:12;;;;;;;32.05;19.90;;;;;;;4.65;76.73;96395.88;5048702;28;20075;-65
2021/04/18 02:50:38;;;;;;;32.13;20.45;;;;;;;4.65;76.93;96392.38;5049171;28;20041;-65
2021/04/18 02:53:04;;;;;;;30.98;20.10;;;;;;;4.63;76.98;96394.53;5048330;28;20075;-65
2021/04/18 02:55:30;;;;;;;31.90;20.25;;;;;;;4.64;77.17;96393.44;5048517;28;20102;-65
2021/04/18 02:57:56;;;;;;;29.10;19.88;;;;;;;4.65;77.26;96395.06;5049662;28;20072;-67
2021/04/18 03:00:22;;;;;;;30.40;20.13;;;;;;;4.64;77.10;96388.03;5047976;28;20045;-67
2021/04/18 03:02:49;;;;;;;29.92;20.05;;;;;;;4.64;77.16;96388.84;5049159;28;20052;-67
2021/04/18 03:05:15;;;;;;;30.60;20.05;;;;;;;4.64;77.00;96393.44;5049576;28;20408;-67
2021/04/18 03:07:41;;;;;;;29.33;19.83;;;;;;;4.60;76.87;96387.81;5047953;28;20087;-67
2021/04/18 03:10:09;;;;;;;30.98;20.88;;;;;;;4.59;76.85;96390.78;5044978;28;20124;-67
2021/04/18 03:12:35;;;;;;;30.70;20.17;;;;;;;4.57;77.06;96387.56;5047892;28;20067;-67
2021/04/18 03:15:01;;;;;;;31.52;20.08;;;;;;;4.58;77.26;96386.47;5052444;28;20458;-71
2021/04/18 03:17:27;;;;;;;31.55;20.55;;;;;;;4.58;77.29;96386.47;5051396;28;20401;-67
2021/04/18 03:19:54;;;;;;;30.05;20.25;;;;;;;4.58;77.03;96386.47;5053379;28;20044;-65
2021/04/18 03:22:20;;;;;;;31.35;20.25;;;;;;;4.56;77.11;96380.56;5050400;28;20098;-66
2021/04/18 03:24:46;;;;;;;31.33;20.65;;;;;;;4.55;77.06;96378.94;5052848;28;20053;-65
2021/04/18 03:27:12;;;;;;;32.88;20.85;;;;;;;4.54;77.23;96383.53;5049704;28;20037;-66
2021/04/18 03:29:38;;;;;;;32.25;20.67;;;;;;;4.53;77.35;96381.09;5052100;28;20072;-66
2021/04/18 03:32:04;;;;;;;29.95;19.20;;;;;;;4.54;77.25;96388.09;5050353;28;20057;-66
2021/04/18 03:34:30;;;;;;;30.38;19.80;;;;;;;4.54;77.28;96380.84;5051169;28;20052;-66
2021/04/18 03:36:57;;;;;;;30.77;19.73;;;;;;;4.52;77.16;96377.59;5051919;28;20049;-65
2021/04/18 03:39:23;;;;;;;33.88;20.40;;;;;;;4.52;77.47;96385.69;5051698;28;20405;-65
2021/04/18 03:41:49;;;;;;;34.78;20.52;;;;;;;4.52;77.48;96384.88;5050595;28;20151;-65
2021/04/18 03:44:15;;;;;;;31.77;19.83;;;;;;;4.49;77.50;96380.03;5051999;28;20099;-65
2021/04/18 03:46:41;;;;;;;32.30;20.35;;;;;;;4.47;77.76;96387.59;5051465;28;20045;-65
2021/04/18 03:49:07;;;;;;;33.22;20.67;;;;;;;4.48;77.79;96379.22;5052450;28;20052;-66
2021/04/18 03:51:33;;;;;;;29.38;19.15;;;;;;;4.50;77.86;96389.75;5050784;28;20408;-65
2021/04/18 03:54:00;;;;;;;30.55;19.45;;;;;;;4.51;77.69;96384.09;5052774;28;20056;-66
2021/04/18 03:56:26;;;;;;;34.63;20.17;;;;;;;4.53;77.75;96383.78;5049995;28;20032;-66
2021/04/18 03:58:52;;;;;;;32.42;20.17;;;;;;;4.54;77.75;96388.94;5053251;28;20053;-66
2021/04/18 04:01:18;;;;;;;31.42;19.45;;;;;;;4.55;77.76;96389.75;5050294;28;20055;-66
2021/04/18 04:03:44;;;;;;;31.02;19.83;;;;;;;4.52;77.71;96387.59;5052895;28;20045;-67
2021/04/18 04:06:10;;;;;;;32.15;19.10;;;;;;;4.47;77.68;96391.09;5050077;28;20065;-66
2021/04/18 04:08:36;;;;;;;30.70;19.65;;;;;;;4.51;77.67;96394.06;5052674;28;20045;-66
2021/04/18 04:11:03;;;;;;;29.13;19.55;;;;;;;4.53;77.51;96391.88;5050246;28;20128;-67
2021/04/18 04:13:29;;;;;;;28.10;18.42;;;;;;;4.53;77.61;96397.28;5050515;28;20067;-66
2021/04/18 04:15:55;;;;;;;31.70;19.77;;;;;;;4.53;77.15;96392.69;5051467;28;20045;-66
2021/04/18 04:18:21;;;;;;;29.55;19.05;;;;;;;4.57;77.30;96398.34;5049954;28;20092;-66
2021/04/18 04:20:47;;;;;;;28.73;18.02;;;;;;;4.58;77.27;96397.25;5050048;28;20060;-66
2021/04/18 04:23:13;;;;;;;30.77;19.40;;;;;;;4.57;77.08;96395.66;5048782;28;20037;-66
2021/04/18 04:25:39;;;;;;;30.27;18.85;;;;;;;4.57;77.02;96401.84;5032654;28;20554;-67
2021/04/18 04:28:07;;;;;;;31.23;20.33;;;;;;;4.57;77.13;96398.34;5043653;28;20515;-66
2021/04/18 04:30:33;;;;;;;29.13;19.65;;;;;;;4.56;77.24;96396.72;5052177;28;20102;-66
2021/04/18 04:32:59;;;;;;;30.98;18.83;;;;;;;4.54;77.13;96393.50;5050575;28;20037;-66
2021/04/18 04:35:25;;;;;;;32.08;19.38;;;;;;;4.55;77.33;96397.81;5049369;28;20126;-66
2021/04/18 04:37:51;;;;;;;32.42;20.45;;;;;;;4.53;77.34;96397.28;5050908;28;20099;-66
2021/04/18 04:40:18;;;;;;;32.25;19.05;;;;;;;4.54;77.50;96401.59;5049730;28;20619;-66
2021/04/18 04:42:45;;;;;;;33.65;20.67;;;;;;;4.56;77.57;96404.81;5051776;28;20060;-66
2021/04/18 04:45:12;;;;;;;31.92;19.55;;;;;;;4.58;77.52;96402.66;5049406;28;20055;-66
2021/04/18 04:47:38;;;;;;;30.40;19.58;;;;;;;4.56;77.58;96402.94;5052178;28;20045;-66
2021/04/18 04:50:05;;;;;;;32.20;19.02;;;;;;;4.52;77.67;96406.47;5048898;28;20414;-67
2021/04/18 04:52:31;;;;;;;33.10;20.70;;;;;;;4.54;77.71;96404.28;5050972;28;20103;-67
2021/04/18 04:54:58;;;;;;;33.20;19.92;;;;;;;4.53;77.99;96408.06;5049974;28;20492;-66
2021/04/18 04:57:24;;;;;;;31.42;19.83;;;;;;;4.49;77.90;96407.84;5040121;28;20045;-66
2021/04/18 04:59:50;;;;;;;31.88;20.27;;;;;;;4.49;78.04;96412.41;5031319;28;20497;-67
2021/04/18 05:02:17;;;;;;;34.42;20.60;;;;;;;4.49;78.36;96413.22;5038351;28;20619;-67
2021/04/18 05:04:43;;;;;;;32.55;19.73;;;;;;;4.48;78.53;96416.19;5051492;28;20049;-66
2021/04/18 05:07:09;;;;;;;33.70;20.65;;;;;;;4.45;78.52;96412.97;5048759;28;20451;-67
2021/04/18 05:09:35;;;;;;;31.92;19.95;;;;;;;4.44;78.71;96419.44;5051664;28;20045;-66
2021/04/18 05:12:01;;;;;;;33.85;20.77;;;;;;;4.42;78.64;96418.91;5049952;28;20064;-70
2021/04/18 05:14:27;;;;;;;33.30;18.95;;;;;;;4.42;78.67;96418.91;5051744;28;20128;-67
2021/04/18 05:16:53;;;;;;;33.85;20.23;;;;;;;4.43;78.82;96420.50;5049507;28;20068;-66
2021/04/18 05:19:20;;;;;;;31.83;19.50;;;;;;;4.40;78.86;96421.06;5049789;28;20500;-66
2021/04/18 05:21:46;;;;;;;34.47;20.95;;;;;;;4.44;78.84;96419.44;5049725;28;20049;-67
2021/04/18 05:24:12;;;;;;;31.63;20.25;;;;;;;4.48;78.94;96425.06;5048966;28;20049;-66
2021/04/18 05:26:38;;;;;;;33.88;20.08;;;;;;;4.52;78.85;96419.94;5050752;28;20671;-66
2021/04/18 05:29:04;;;;;;;34.22;19.88;;;;;;;4.51;78.75;96426.44;5048653;28;20065;-67
2021/04/18 05:31:30;;;;;;;32.25;19.27;;;;;;;4.49;79.01;96418.63;5049068;28;20045;-67
2021/04/18 05:33:55;;;;;;;33.83;18.75;;;;;;;4.53;78.91;96418.84;5050321;28;20045;-67
2021/04/18 05:36:22;;;;;;;32.78;19.13;;;;;;;4.54;78.69;96431.25;5048450;28;20106;-67
2021/04/18 05:38:48;;;;;;;31.92;19.10;;;;;;;4.53;78.74;96426.94;5050076;28;20669;-66
2021/04/18 05:41:14;;;;;;;30.38;18.25;;;;;;;4.54;78.54;96425.84;5048882;28;20111;-67
2021/04/18 05:43:40;;;;;;;29.38;18.35;;;;;;;4.50;78.59;96432.91;5049535;28;20053;-67
2021/04/18 05:46:06;;;;;;;31.15;18.75;;;;;;;4.50;78.63;96433.72;5049196;28;20071;-67
2021/04/18 05:48:32;;;;;;;32.55;19.50;;;;;;;4.55;78.48;96432.88;5047857;28;20056;-66
2021/04/18 05:50:58;;;;;;;30.45;18.17;;;;;;;4.57;78.40;96430.72;5048828;28;20045;-66
2021/04/18 05:53:25;;;;;;;30.10;19.35;;;;;;;4.50;77.61;96430.22;5049846;28;20051;-66
2021/04/18 05:55:51;;;;;;;31.10;19.13;;;;;;;4.51;77.93;96437.22;5048563;28;20075;-66
2021/04/18 05:58:17;;;;;;;31.75;19.25;;;;;;;4.57;78.36;96436.09;5050217;28;20049;-67
2021/04/18 06:00:44;;;;;;;32.00;19.88;;;;;;;4.63;78.30;96434.97;5047043;28;20115;-66
2021/04/18 06:03:10;;;;;;;34.17;20.67;;;;;;;4.70;78.43;96430.09;5050087;28;20382;-67
2021/04/18 06:05:36;;;;;;;32.97;19.73;;;;;;;4.71;78.26;96434.41;5044090;28;20492;-67
2021/04/18 06:08:02;;;;;;;34.53;19.50;;;;;;;4.71;78.30;96442.50;5048597;28;20056;-67
2021/04/18 06:10:28;;;;;;;31.35;19.60;;;;;;;4.75;78.53;96435.47;5047145;28;20040;-66
2021/04/18 06:12:54;;;;;;;31.55;18.83;;;;;;;4.81;78.20;96431.66;5049628;28;20107;-67
2021/04/18 06:15:20;;;;;;;30.38;18.75;;;;;;;4.87;78.15;96435.13;5049400;28;20562;-66
2021/04/18 06:17:46;;;;;;;31.88;18.92;;;;;;;4.92;77.91;96433.22;5049761;28;20056;-66
2021/04/18 06:20:13;;;;;;;31.75;18.80;;;;;;;4.99;77.66;96440.97;5047344;28;20045;-67
2021/04/18 06:22:39;;;;;;;30.20;18.35;;;;;;;5.04;77.26;96440.94;5049697;28;20393;-67
2021/04/18 06:25:05;;;;;;;32.40;19.02;;;;;;;5.08;76.79;96441.19;5048550;28;20048;-67
2021/04/18 06:27:32;;;;;;;32.65;18.63;;;;;;;5.09;76.45;96432.81;5047416;28;20102;-67
2021/04/18 06:29:58;;;;;;;31.80;18.65;;;;;;;5.10;76.52;96436.31;5049826;28;20041;-66
2021/04/18 06:32:24;;;;;;;33.28;20.17;;;;;;;5.14;76.57;96431.97;5046359;28;20037;-67
2021/04/18 06:34:50;;;;;;;30.08;18.77;;;;;;;5.21;77.03;96437.84;5050462;28;20416;-67
2021/04/18 06:37:16;;;;;;;30.48;18.65;;;;;;;5.20;76.75;96428.16;5047717;28;20519;-66
2021/04/18 06:39:42;;;;;;;29.27;17.77;;;;;;;5.20;76.50;96434.34;5049817;28;20407;-67
2021/04/18 06:42:14;;;;;;;32.05;18.80;;;;;;;5.13;76.75;96438.47;5045534;28;20052;-67
2021/04/18 06:44:41;;;;;;;33.88;18.75;;;;;;;5.14;76.89;96434.69;5049847;28;20135;-67
2021/04/18 06:47:07;;;;;;;31.83;19.75;;;;;;;5.10;76.45;96437.13;5048606;28;20075;-67
2021/04/18 06:49:35;;;;;;;30.02;18.77;;;;;;;5.14;76.67;96434.69;5052299;28;20052;-67
2021/04/18 06:52:02;;;;;;;33.05;19.15;;;;;;;5.13;76.38;96433.88;5052434;28;20051;-68
2021/04/18 06:54:28;;;;;;;34.55;20.25;;;;;;;5.19;76.35;96426.53;5052855;28;20405;-67
2021/04/18 06:56:54;;;;;;;32.75;19.42;;;;;;;5.30;76.68;96427.25;5052812;28;20393;-67
2021/04/18 06:59:20;;;;;;;33.15;20.55;;;;;;;5.35;77.43;96429.94;5052759;28;20092;-68
2021/04/18 07:01:46;;;;;;;36.28;22.23;;;;;;;5.41;77.70;96424.19;5052769;28;20052;-68
2021/04/18 07:04:14;;;;;;;34.78;21.23;;;;;;;5.50;78.10;96433.31;5052970;28;20652;-67
2021/04/18 07:06:42;;;;;;;31.40;19.15;;;;;;;5.42;75.73;96427.69;5052605;28;20049;-68
2021/04/18 07:09:08;;;;;;;33.38;19.42;;;;;;;5.31;75.95;96432.38;5053161;28;20052;-68
2021/04/18 07:11:45;;;;;;;36.33;21.40;;;;;;;5.39;76.65;96431.78;5051595;28;20064;-67
2021/04/18 07:14:22;;;;;;;30.63;19.75;;;;;;;5.41;76.48;96434.19;5053845;28;20048;-70
2021/04/18 07:16:50;;;;;;;33.08;20.20;;;;;;;5.29;75.89;96431.06;5050983;28;20103;-67
2021/04/18 07:19:21;;;;;;;29.63;18.88;;;;;;;5.21;76.32;96437.84;5053604;28;20053;-70
2021/04/18 07:21:50;;;;;;;30.83;20.15;;;;;;;5.10;75.63;96436.31;5051609;28;20041;-69
2021/04/18 07:24:16;;;;;;;35.15;20.75;;;;;;;5.08;76.12;96430.41;5052943;28;20498;-68
2021/04/18 07:26:42;;;;;;;32.08;20.10;;;;;;;5.11;77.05;96433.31;5052324;28;20068;-69
2021/04/18 07:29:13;;;;;;;32.13;19.65;;;;;;;5.11;76.46;96429.81;5052352;28;20504;-70
2021/04/18 07:31:39;;;;;;;35.67;21.23;;;;;;;5.14;76.69;96427.38;5051549;28;20500;-70
2021/04/18 07:34:09;;;;;;;33.50;20.23;;;;;;;5.21;76.53;96429.75;5052103;28;20060;-68
2021/04/18 07:36:37;;;;;;;32.38;19.55;;;;;;;5.20;76.10;96438.94;5053772;28;20045;-68
2021/04/18 07:39:05;;;;;;;37.50;20.92;;;;;;;5.22;76.67;96432.19;5050978;28;20041;-68
2021/04/18 07:41:31;;;;;;;32.67;21.73;;;;;;;5.30;77.82;96428.06;5053500;28;20068;-68
2021/04/18 07:43:57;;;;;;;36.08;20.98;;;;;;;5.35;77.43;96428.03;5051856;28;20115;-70
2021/04/18 07:46:24;;;;;;;31.30;19.33;;;;;;;5.45;75.66;96427.94;5052841;28;20045;-67
2021/04/18 07:48:50;;;;;;;33.88;20.38;;;;;;;5.52;75.05;96429.50;5051074;28;20056;-67
2021/04/18 07:51:19;;;;;;;32.45;21.02;;;;;;;5.61;75.63;96422.41;5050462;28;20076;-67
2021/04/18 07:53:46;;;;;;;32.22;21.05;;;;;;;5.56;74.47;96431.38;5052986;28;20049;-68
2021/04/18 07:56:13;;;;;;;31.52;19.88;;;;;;;5.58;74.30;96433.78;5050156;28;20515;-68
2021/04/18 07:58:40;;;;;;;32.60;19.90;;;;;;;5.64;74.04;96435.38;5052905;28;20057;-68
2021/04/18 08:01:07;;;;;;;31.45;19.80;;;;;;;5.77;75.18;96437.38;5049531;28;20416;-68
2021/04/18 08:03:34;;;;;;;31.67;20.15;;;;;;;5.88;75.22;96438.09;5052903;28;20068;-70
2021/04/18 08:06:00;;;;;;;35.28;20.05;;;;;;;6.03;75.15;96435.25;5050168;28;20056;-70
2021/04/18 08:08:46;;;;;;;28.55;18.65;;;;;;;6.04;73.36;96436.06;5052273;28;20041;-67
2021/04/18 08:11:14;;;;;;;32.35;19.42;;;;;;;6.10;73.36;96434.91;5050213;28;20053;-68
2021/04/18 08:13:42;;;;;;;30.20;19.45;;;;;;;6.16;73.14;96433.75;5052141;28;20045;-68
2021/04/18 08:16:09;;;;;;;30.13;19.75;;;;;;;6.19;73.36;96435.91;5050317;28;20045;-68
2021/04/18 08:18:37;;;;;;;31.42;20.02;;;;;;;6.25;72.72;96432.03;5051588;28;20048;-68
2021/04/18 08:21:22;;;;;;;31.35;19.13;;;;;;;6.33;71.59;96434.13;5050311;28;20152;-68
2021/04/18 08:23:50;;;;;;;28.63;19.65;;;;;;;6.31;71.07;96435.50;5051303;28;20045;-68
2021/04/18 08:26:17;;;;;;;31.50;20.02;;;;;;;6.43;71.58;96430.50;5050883;28;20045;-68
2021/04/18 08:29:09;;;;;;;29.75;20.48;;;;;;;6.58;72.96;96438.41;5051649;28;20053;-68
2021/04/18 08:31:55;;;;;;;30.95;20.13;;;;;;;6.63;71.58;96437.53;5048730;28;20061;-67
2021/04/18 08:34:23;;;;;;;31.70;20.08;;;;;;;6.59;71.10;96439.22;5032433;28;20056;-69
2021/04/18 08:36:52;;;;;;;34.55;21.85;;;;;;;6.56;71.36;96440.59;5049648;28;20049;-67
2021/04/18 08:39:22;;;;;;;30.48;20.10;;;;;;;6.69;71.77;96444.50;5051993;28;20048;-67
2021/04/18 08:41:49;;;;;;;32.88;21.55;;;;;;;6.73;71.01;96442.81;5049372;28;20107;-69
2021/04/18 08:44:17;;;;;;;31.98;20.38;;;;;;;6.74;71.01;96439.03;5051473;28;20048;-67
2021/04/18 08:46:44;;;;;;;32.63;20.90;;;;;;;6.77;71.10;96443.84;5050088;28;20057;-67
2021/04/18 08:49:11;;;;;;;31.67;20.30;;;;;;;6.80;70.63;96448.69;5048871;28;20048;-67
2021/04/18 08:51:38;;;;;;;30.20;19.77;;;;;;;6.75;70.26;96443.34;5050496;28;20103;-67
2021/04/18 08:54:05;;;;;;;30.98;20.73;;;;;;;6.76;70.87;96448.44;5049710;28;20107;-67
2021/04/18 08:56:46;;;;;;;31.67;19.55;;;;;;;6.70;69.75;96446.91;5051841;28;20076;-68
2021/04/18 08:59:13;;;;;;;32.60;20.95;;;;;;;6.64;69.75;96447.28;5050463;28;20408;-68
2021/04/18 09:01:52;;;;;;;32.28;20.70;;;;;;;6.70;70.25;96448.81;5051238;28;20052;-67
2021/04/18 09:04:20;;;;;;;34.55;21.75;;;;;;;6.81;71.60;96450.28;5030920;28;20042;-67
2021/04/18 09:06:47;;;;;;;32.40;20.75;;;;;;;6.80;70.94;96451.41;5043059;28;20163;-68
2021/04/18 09:09:14;;;;;;;33.25;20.67;;;;;;;6.80;70.50;96445.97;5050972;28;20126;-68
2021/04/18 09:11:42;;;;;;;31.05;20.67;;;;;;;6.84;70.36;96443.47;5049599;28;20053;-68
2021/04/18 09:14:09;;;;;;;29.27;19.00;;;;;;;6.77;69.55;96446.53;5050805;28;20037;-67
2021/04/18 09:16:37;;;;;;;29.42;19.50;;;;;;;6.78;69.92;96445.44;5050273;28;20052;-67
2021/04/18 09:19:23;;;;;;;29.83;19.70;;;;;;;6.81;70.14;96444.88;5049570;28;20060;-68
2021/04/18 09:22:04;;;;;;;29.48;19.85;;;;;;;6.90;70.43;96443.13;5050629;28;20052;-67
2021/04/18 09:24:31;;;;;;;34.38;20.17;;;;;;;6.98;69.84;96445.16;5048797;28;20049;-67
2021/04/18 09:27:00;;;;;;;28.65;19.65;;;;;;;7.12;69.38;96444.44;5051097;28;20179;-67
2021/04/18 09:29:28;;;;;;;28.67;19.42;;;;;;;7.23;69.05;96445.91;5048387;28;20712;-67
2021/04/18 09:32:07;;;;;;;26.30;17.98;;;;;;;7.30;67.32;96447.13;5051470;28;20045;-67
2021/04/18 09:34:34;;;;;;;28.48;19.05;;;;;;;7.37;67.23;96446.78;5048820;28;20053;-67
2021/04/18 09:37:05;;;;;;;27.85;18.08;;;;;;;7.46;67.91;96455.03;5048842;28;20056;-67
2021/04/18 09:39:33;;;;;;;23.55;16.30;;;;;;;7.57;66.67;96448.34;5047195;28;20063;-67
2021/04/18 09:42:00;;;;;;;24.92;17.70;;;;;;;7.68;65.81;96443.56;5047927;28;20110;-72
2021/04/18 09:44:31;;;;;;;27.55;18.25;;;;;;;7.74;67.47;96443.19;5048933;28;20044;-74
2021/04/18 09:47:00;;;;;;;22.85;15.88;;;;;;;7.87;67.04;96449.72;5050927;28;20052;-75
2021/04/18 09:49:27;;;;;;;24.30;16.23;;;;;;;7.91;65.05;96449.94;5050912;28;20558;-71
2021/04/18 09:51:59;;;;;;;24.63;16.45;;;;;;;7.95;65.10;96454.47;5050400;28;20110;-70
2021/04/18 09:54:27;;;;;;;24.17;16.48;;;;;;;7.89;64.11;96444.81;5050741;28;20390;-71
2021/04/18 09:57:19;;;;;;;28.98;17.65;;;;;;;7.98;64.88;96445.72;5050185;28;20053;-71
2021/04/18 10:00:01;;;;;;;27.35;18.75;;;;;;;8.10;66.82;96443.34;5014185;28;20502;-71
2021/04/18 10:02:27;;;;;;;24.05;16.85;;;;;;;8.25;65.63;96449.59;5050425;28;20138;-70
2021/04/18 10:05:10;;;;;;;25.70;17.73;;;;;;;8.35;64.67;96446.66;5050208;28;20049;-70
2021/04/18 10:07:36;;;;;;;22.77;17.10;;;;;;;8.38;62.12;96442.59;5050709;28;20049;-70
2021/04/18 10:10:02;;;;;;;25.00;16.85;;;;;;;8.51;62.93;96442.59;5049294;28;20051;-71
2021/04/18 10:12:28;;;;;;;22.98;16.77;;;;;;;8.56;62.56;96445.22;5050971;28;20063;-71
2021/04/18 10:15:06;;;;;;;22.70;16.60;;;;;;;8.73;61.28;96441.06;5049906;28;20048;-72
2021/04/18 10:17:34;;;;;;;21.95;16.52;;;;;;;8.84;61.97;96442.47;5050538;28;20045;-70
2021/04/18 10:20:00;;;;;;;25.88;18.00;;;;;;;8.76;61.86;96443.16;5050089;28;20048;-70
2021/04/18 10:22:27;;;;;;;25.40;17.50;;;;;;;8.57;61.07;96441.38;5049440;28;20045;-70
2021/04/18 10:24:53;;;;;;;28.23;18.23;;;;;;;8.61;61.86;96442.41;5050391;28;20507;-70
2021/04/18 10:27:21;;;;;;;23.40;16.20;;;;;;;8.69;59.27;96437.34;5049401;28;20049;-71
2021/04/18 10:29:48;;;;;;;24.08;16.98;;;;;;;8.77;61.33;96434.75;5050655;28;20056;-70
2021/04/18 10:32:17;;;;;;;24.08;16.55;;;;;;;8.78;59.72;96432.81;5049248;28;20049;-70
2021/04/18 10:34:43;;;;;;;26.40;18.30;;;;;;;8.79;60.08;96437.13;5050805;28;20053;-70
2021/04/18 10:37:09;;;;;;;27.15;17.85;;;;;;;8.81;59.70;96437.63;5049239;28;20075;-71
2021/04/18 10:39:35;;;;;;;26.45;17.40;;;;;;;8.69;60.50;96438.16;5050851;28;20053;-70
2021/04/18 10:42:02;;;;;;;24.67;16.98;;;;;;;8.66;60.28;96438.75;5049093;28;20044;-71
2021/04/18 10:44:28;;;;;;;24.80;17.15;;;;;;;8.68;59.99;96436.56;5050226;28;20064;-70
2021/04/18 10:46:56;;;;;;;24.67;17.25;;;;;;;8.73;60.06;96436.44;5050054;28;20662;-70
2021/04/18 10:49:23;;;;;;;26.27;17.27;;;;;;;8.78;59.40;96435.53;5049720;28;20041;-70
2021/04/18 10:51:50;;;;;;;24.98;17.23;;;;;;;8.77;59.33;96434.75;5050525;28;20471;-71
2021/04/18 10:54:17;;;;;;;28.55;18.85;;;;;;;8.70;60.51;96426.19;5048843;28;20411;-71
2021/04/18 10:56:43;;;;;;;30.60;19.98;;;;;;;8.72;61.12;96431.28;5050615;28;20083;-70
2021/04/18 10:59:09;;;;;;;26.63;18.85;;;;;;;8.69;61.58;96432.72;5048979;28;20097;-71
2021/04/18 11:01:35;;;;;;;27.27;18.70;;;;;;;8.60;61.01;96429.09;5050238;28;20049;-70
2021/04/18 11:04:01;;;;;;;26.35;17.98;;;;;;;8.51;61.16;96426.31;5049613;28;20535;-71
2021/04/18 11:06:28;;;;;;;26.02;17.30;;;;;;;8.46;60.92;96429.13;5049879;28;20037;-70
2021/04/18 11:08:54;;;;;;;22.35;16.13;;;;;;;8.40;61.08;96433.03;5049657;28;20045;-71
2021/04/18 11:11:23;;;;;;;24.42;16.20;;;;;;;8.34;60.64;96431.50;5049020;28;20049;-71
2021/04/18 11:13:49;;;;;;;23.83;16.45;;;;;;;8.31;60.83;96427.50;5049764;28;20049;-70
2021/04/18 11:16:14;;;;;;;24.90;16.88;;;;;;;8.36;61.56;96429.34;5049259;28;20472;-71
2021/04/18 11:18:41;;;;;;;24.85;17.90;;;;;;;8.45;62.28;96427.50;5050132;28;20049;-73
2021/04/18 11:21:07;;;;;;;24.38;16.48;;;;;;;8.45;61.41;96422.06;5048562;28;20588;-71
2021/04/18 11:23:33;;;;;;;25.00;16.85;;;;;;;8.50;61.04;96424.69;5050458;28;20144;-70
2021/04/18 11:25:59;;;;;;;26.13;16.40;;;;;;;8.52;60.46;96422.50;5049355;28;20049;-70
2021/04/18 11:28:25;;;;;;;24.50;15.73;;;;;;;8.55;60.54;96427.28;5049521;28;20040;-70